createdAt,value
2018-01-11T00:02:24.578Z,5.43
2018-01-11T00:04:52.112Z,5.43
2018-01-11T00:07:20.410Z,5.30
2018-01-11T00:09:47.940Z,5.60
2018-01-11T00:12:16.221Z,5.30
2018-01-11T00:14:44.541Z,5.50
2018-01-11T00:17:12.226Z,5.23
2018-01-11T00:19:40.697Z,5.83
2018-01-11T00:22:08.650Z,5.27
2018-01-11T00:24:36.550Z,5.43
2018-01-11T00:27:04.691Z,5.83
2018-01-11T00:29:32.472Z,5.87
2018-01-11T00:32:01.812Z,5.97
2018-01-11T00:34:30.238Z,6.10
2018-01-11T00:36:59.932Z,6.57
2018-01-11T00:39:29.409Z,6.13
2018-01-11T00:41:58.756Z,6.37
2018-01-11T00:44:28.363Z,6.83
2018-01-11T00:46:56.848Z,6.33
2018-01-11T00:49:24.421Z,6.07
2018-01-11T00:51:51.966Z,5.10
2018-01-11T00:54:19.500Z,4.87
2018-01-11T00:56:47.885Z,5.23
2018-01-11T00:59:15.412Z,5.23
2018-01-11T01:01:42.935Z,5.23
2018-01-11T01:04:10.472Z,5.03
2018-01-11T01:06:38.196Z,5.40
2018-01-11T01:09:06.269Z,5.27
2018-01-11T01:11:34.590Z,5.40
2018-01-11T01:14:02.565Z,5.83
2018-01-11T01:16:30.989Z,6.27
2018-01-11T01:19:00.072Z,6.17
2018-01-11T01:21:29.200Z,5.73
2018-01-11T01:23:58.759Z,6.77
2018-01-11T01:26:30.156Z,6.37
2018-01-11T01:28:59.840Z,6.93
2018-01-11T01:31:29.426Z,8.10
2018-01-11T01:33:58.762Z,8.07
2018-01-11T01:36:27.402Z,8.37
2018-01-11T01:38:55.241Z,7.33
2018-01-11T01:41:24.193Z,7.23
2018-01-11T01:43:51.713Z,6.63
2018-01-11T01:46:19.244Z,6.30
2018-01-11T01:48:47.529Z,6.90
2018-01-11T01:51:15.805Z,6.63
2018-01-11T01:53:44.101Z,6.70
2018-01-11T01:56:11.620Z,7.53
2018-01-11T01:58:39.185Z,6.73
2018-01-11T02:01:06.907Z,5.97
2018-01-11T02:03:35.064Z,5.73
2018-01-11T02:06:03.673Z,5.23
2018-01-11T02:08:32.688Z,5.57
2018-01-11T02:11:00.933Z,5.43
2018-01-11T02:13:29.890Z,5.23
2018-01-11T02:15:59.225Z,5.20
2018-01-11T02:18:28.551Z,5.50
2018-01-11T02:21:01.584Z,5.27
2018-01-11T02:23:29.385Z,5.53
2018-01-11T02:25:56.965Z,5.53
2018-01-11T02:28:25.103Z,5.10
2018-01-11T02:30:52.627Z,5.60
2018-01-11T02:33:20.907Z,5.87
2018-01-11T02:35:48.745Z,5.80
2018-01-11T02:38:17.590Z,5.90
2018-01-11T02:40:45.464Z,5.70
2018-01-11T02:43:13.571Z,5.83
2018-01-11T02:45:41.770Z,5.40
2018-01-11T02:48:12.089Z,5.13
2018-01-11T02:50:40.825Z,5.07
2018-01-11T02:53:10.697Z,5.17
2018-01-11T02:55:40.132Z,5.10
2018-01-11T02:58:11.493Z,4.47
2018-01-11T03:00:41.138Z,4.80
2018-01-11T03:03:10.958Z,5.13
2018-01-11T03:05:42.423Z,4.63
2018-01-11T03:08:11.756Z,4.60
2018-01-11T03:10:41.495Z,4.63
2018-01-11T03:13:12.455Z,4.60
2018-01-11T03:15:42.482Z,4.40
2018-01-11T03:18:12.339Z,4.67
2018-01-11T03:20:42.080Z,4.47
2018-01-11T03:23:12.235Z,4.90
2018-01-11T03:25:41.884Z,4.93
2018-01-11T03:28:11.402Z,4.87
2018-01-11T03:30:40.613Z,4.33
2018-01-11T03:33:09.719Z,4.33
2018-01-11T03:35:40.907Z,4.57
2018-01-11T03:38:11.084Z,4.40
2018-01-11T03:40:40.735Z,4.50
2018-01-11T03:43:10.736Z,4.50
2018-01-11T03:45:42.049Z,3.87
2018-01-11T03:48:11.184Z,4.20
2018-01-11T03:50:42.084Z,4.60
2018-01-11T03:53:11.723Z,4.57
2018-01-11T03:55:42.847Z,4.67
2018-01-11T03:58:11.635Z,4.00
2018-01-11T04:00:41.462Z,4.30
2018-01-11T04:03:10.382Z,4.60
2018-01-11T04:05:41.172Z,4.27
2018-01-11T04:08:10.936Z,3.87
2018-01-11T04:10:40.234Z,3.63
2018-01-11T04:13:10.676Z,4.80
2018-01-11T04:15:41.726Z,4.30
2018-01-11T04:18:11.854Z,4.17
2018-01-11T04:20:42.202Z,4.07
2018-01-11T04:23:11.953Z,3.97
2018-01-11T04:25:43.227Z,4.50
2018-01-11T04:28:12.147Z,6.40
2018-01-11T04:30:41.930Z,5.03
2018-01-11T04:33:11.626Z,5.27
2018-01-11T04:35:41.666Z,5.07
2018-01-11T04:38:11.144Z,4.83
2018-01-11T04:40:41.298Z,5.03
2018-01-11T04:43:10.653Z,5.17
2018-01-11T04:45:40.844Z,5.47
2018-01-11T04:48:10.673Z,5.17
2018-01-11T04:50:41.044Z,5.20
2018-01-11T04:53:11.492Z,4.97
2018-01-11T04:55:41.019Z,5.30
2018-01-11T04:58:11.129Z,5.43
2018-01-11T05:00:45.441Z,5.50
2018-01-11T05:03:14.832Z,5.70
2018-01-11T05:05:43.417Z,4.33
2018-01-11T05:08:12.473Z,4.90
2018-01-11T05:10:41.715Z,5.40
2018-01-11T05:13:11.149Z,5.43
2018-01-11T05:15:42.013Z,5.73
2018-01-11T05:18:11.861Z,5.57
2018-01-11T05:20:41.162Z,5.70
2018-01-11T05:23:11.724Z,5.97
2018-01-11T05:25:40.457Z,5.93
2018-01-11T05:28:09.710Z,6.03
2018-01-11T05:30:39.926Z,5.53
2018-01-11T05:33:09.908Z,6.20
2018-01-11T05:35:40.080Z,4.90
2018-01-11T05:38:09.846Z,6.10
2018-01-11T05:40:41.105Z,5.57
2018-01-11T05:43:10.232Z,5.87
2018-01-11T05:45:39.288Z,5.70
2018-01-11T05:48:09.187Z,5.90
2018-01-11T05:50:37.285Z,5.23
2018-01-11T05:53:06.253Z,5.43
2018-01-11T05:55:34.352Z,6.13
2018-01-11T05:58:02.712Z,6.30
2018-01-11T06:00:30.489Z,6.70
2018-01-11T06:02:58.039Z,6.83
2018-01-11T06:05:25.562Z,6.73
2018-01-11T06:07:53.153Z,6.80
2018-01-11T06:10:21.434Z,6.53
2018-01-11T06:12:50.962Z,6.43
2018-01-11T06:15:18.576Z,6.20
2018-01-11T06:17:46.561Z,6.40
2018-01-11T06:20:15.494Z,6.07
2018-01-11T06:22:43.798Z,6.00
2018-01-11T06:25:12.299Z,5.40
2018-01-11T06:27:42.290Z,6.40
2018-01-11T06:30:11.926Z,6.60
2018-01-11T06:32:41.137Z,6.90
2018-01-11T06:35:11.866Z,6.83
2018-01-11T06:37:41.290Z,7.00
2018-01-11T06:40:10.962Z,6.93
2018-01-11T06:42:39.960Z,7.73
2018-01-11T06:45:08.499Z,6.37
2018-01-11T06:47:36.458Z,6.67
2018-01-11T06:50:04.066Z,6.93
2018-01-11T06:52:31.669Z,6.80
2018-01-11T06:54:59.548Z,7.13
2018-01-11T06:57:27.095Z,8.03
2018-01-11T06:59:54.616Z,7.93
2018-01-11T07:02:22.157Z,8.07
2018-01-11T07:04:49.699Z,7.80
2018-01-11T07:07:17.453Z,7.73
2018-01-11T07:09:45.160Z,7.13
2018-01-11T07:12:13.185Z,7.80
2018-01-11T07:14:41.873Z,7.47
2018-01-11T07:17:11.279Z,6.20
2018-01-11T07:19:41.703Z,7.30
2018-01-11T07:22:10.818Z,7.17
2018-01-11T07:24:38.931Z,7.10
2018-01-11T07:27:07.061Z,6.60
2018-01-11T07:29:34.666Z,6.67
2018-01-11T07:32:03.005Z,6.40
2018-01-11T07:34:30.606Z,6.97
2018-01-11T07:36:59.044Z,7.17
2018-01-11T07:39:26.605Z,6.90
2018-01-11T07:41:54.177Z,7.00
2018-01-11T07:44:21.752Z,7.47
2018-01-11T07:46:49.261Z,8.50
2018-01-11T07:49:16.868Z,7.10
2018-01-11T07:51:44.438Z,6.93
2018-01-11T07:54:13.071Z,6.63
2018-01-11T07:56:41.146Z,7.00
2018-01-11T07:59:09.748Z,7.00
2018-01-11T08:01:38.537Z,8.93
2018-01-11T08:04:07.232Z,8.20
2018-01-11T08:06:34.876Z,8.33
2018-01-11T08:09:02.759Z,8.20
2018-01-11T08:11:30.306Z,8.60
2018-01-11T08:13:57.940Z,8.13
2018-01-11T08:16:25.457Z,7.47
2018-01-11T08:18:52.997Z,14.47
2018-01-11T08:21:20.776Z,10.47
2018-01-11T08:23:49.524Z,11.60
2018-01-11T08:26:17.267Z,12.20
2018-01-11T08:28:44.935Z,11.70
2018-01-11T08:31:12.924Z,11.07
2018-01-11T08:33:40.906Z,10.07
2018-01-11T08:36:08.736Z,9.53
2018-01-11T08:38:37.364Z,8.70
2018-01-11T08:41:04.911Z,9.67
2018-01-11T08:43:32.502Z,8.90
2018-01-11T08:46:00.815Z,9.20
2018-01-11T08:48:29.160Z,9.33
2018-01-11T08:50:57.559Z,7.80
2018-01-11T08:53:25.853Z,7.73
2018-01-11T08:55:54.202Z,8.23
2018-01-11T08:58:21.730Z,9.00
2018-01-11T09:00:49.596Z,8.40
2018-01-11T09:03:17.200Z,8.93
2018-01-11T09:05:44.820Z,9.63
2018-01-11T09:08:12.776Z,9.60
2018-01-11T09:10:40.950Z,9.20
2018-01-11T09:13:09.092Z,9.67
2018-01-11T09:15:36.890Z,9.27
2018-01-11T09:18:04.616Z,9.20
2018-01-11T09:20:33.149Z,9.37
2018-01-11T09:23:00.681Z,9.30
2018-01-11T09:25:28.212Z,9.27
2018-01-11T09:27:55.748Z,9.33
2018-01-11T09:30:23.277Z,9.70
2018-01-11T09:32:51.098Z,8.73
2018-01-11T09:35:18.690Z,9.90
2018-01-11T09:37:46.414Z,9.77
2018-01-11T09:40:14.864Z,8.77
2018-01-11T09:42:42.696Z,9.43
2018-01-11T09:45:10.889Z,8.70
2018-01-11T09:47:38.865Z,9.07
2018-01-11T09:50:07.292Z,10.03
2018-01-11T09:52:34.832Z,8.93
2018-01-11T09:55:02.518Z,8.67
2018-01-11T09:57:31.046Z,8.63
2018-01-11T09:59:58.562Z,8.80
2018-01-11T10:02:26.097Z,8.23
2018-01-11T10:04:53.629Z,8.70
2018-01-11T10:07:21.183Z,8.33
2018-01-11T10:09:48.935Z,8.90
2018-01-11T10:12:16.612Z,9.47
2018-01-11T10:14:45.041Z,8.00
2018-01-11T10:17:12.651Z,8.63
2018-01-11T10:19:40.315Z,8.87
2018-01-11T10:22:08.406Z,8.53
2018-01-11T10:24:36.878Z,8.53
2018-01-11T10:27:05.216Z,9.37
2018-01-11T10:29:33.564Z,9.33
2018-01-11T10:32:01.197Z,8.87
2018-01-11T10:34:28.709Z,9.33
2018-01-11T10:36:57.040Z,9.20
2018-01-11T10:39:24.564Z,9.63
2018-01-11T10:41:52.137Z,10.13
2018-01-11T10:44:19.790Z,9.50
2018-01-11T10:46:47.300Z,9.57
2018-01-11T10:49:14.925Z,9.53
2018-01-11T10:51:42.658Z,9.90
2018-01-11T10:54:11.375Z,10.03
2018-01-11T10:56:39.346Z,9.47
2018-01-11T10:59:07.189Z,9.17
2018-01-11T11:01:40.557Z,9.83
2018-01-11T11:04:09.093Z,8.93
2018-01-11T11:06:36.725Z,9.37
2018-01-11T11:09:04.621Z,9.63
2018-01-11T11:11:32.187Z,10.00
2018-01-11T11:14:00.363Z,9.93
2018-01-11T11:16:28.726Z,9.63
2018-01-11T11:18:56.244Z,9.57
2018-01-11T11:21:23.790Z,10.37
2018-01-11T11:23:51.316Z,10.50
2018-01-11T11:26:18.844Z,9.77
2018-01-11T11:28:47.270Z,10.17
2018-01-11T11:31:14.926Z,9.63
2018-01-11T11:33:42.680Z,10.77
2018-01-11T11:36:10.648Z,10.40
2018-01-11T11:38:38.848Z,10.03
2018-01-11T11:41:08.272Z,9.80
2018-01-11T11:43:36.092Z,10.00
2018-01-11T11:46:03.759Z,10.17
2018-01-11T11:48:31.301Z,11.13
2018-01-11T11:50:58.932Z,11.10
2018-01-11T11:53:27.256Z,9.93
2018-01-11T11:55:54.820Z,10.23
2018-01-11T11:58:22.351Z,10.73
2018-01-11T12:00:49.932Z,10.73
2018-01-11T12:03:17.599Z,9.37
2018-01-11T12:05:45.213Z,10.00
2018-01-11T12:08:13.953Z,10.40
2018-01-11T12:10:42.020Z,10.77
2018-01-11T12:13:09.917Z,10.13
2018-01-11T12:15:37.712Z,9.57
2018-01-11T12:18:05.379Z,9.87
2018-01-11T12:20:33.106Z,8.97
2018-01-11T12:23:00.628Z,9.90
2018-01-11T12:25:28.167Z,9.17
2018-01-11T12:27:56.452Z,9.70
2018-01-11T12:30:24.007Z,8.80
2018-01-11T12:32:51.577Z,9.00
2018-01-11T12:35:19.359Z,9.77
2018-01-11T12:37:47.870Z,8.73
2018-01-11T12:40:15.916Z,8.87
2018-01-11T12:42:43.860Z,9.50
2018-01-11T12:45:11.642Z,9.27
2018-01-11T12:47:39.305Z,8.13
2018-01-11T12:50:06.995Z,8.27
2018-01-11T12:52:40.010Z,7.87
2018-01-11T12:55:08.305Z,8.30
2018-01-11T12:57:37.123Z,8.37
2018-01-11T13:00:04.854Z,9.37
2018-01-11T13:02:32.481Z,9.20
2018-01-11T13:05:00.082Z,9.13
2018-01-11T13:07:27.871Z,8.90
2018-01-11T13:09:55.660Z,9.03
2018-01-11T13:12:23.227Z,8.70
2018-01-11T13:14:50.888Z,9.57
2018-01-11T13:17:18.461Z,9.37
2018-01-11T13:19:45.988Z,9.17
2018-01-11T13:22:13.529Z,10.90
2018-01-11T13:24:41.045Z,8.80
2018-01-11T13:27:08.620Z,9.03
2018-01-11T13:29:36.431Z,8.97
2018-01-11T13:32:04.308Z,9.47
2018-01-11T13:34:32.620Z,9.03
2018-01-11T13:37:00.561Z,9.20
2018-01-11T13:39:28.214Z,9.10
2018-01-11T13:41:55.753Z,9.83
2018-01-11T13:44:23.293Z,9.27
2018-01-11T13:46:51.590Z,10.00
2018-01-11T13:49:19.300Z,10.53
2018-01-11T13:51:46.870Z,10.50
2018-01-11T13:54:15.097Z,11.00
2018-01-11T13:56:42.628Z,10.20
2018-01-11T13:59:10.912Z,11.13
2018-01-11T14:01:39.233Z,12.37
2018-01-11T14:04:06.803Z,11.90
2018-01-11T14:06:34.427Z,10.97
2018-01-11T14:09:02.313Z,11.07
2018-01-11T14:11:30.310Z,11.23
2018-01-11T14:13:58.698Z,10.87
2018-01-11T14:16:26.234Z,10.80
2018-01-11T14:18:53.854Z,10.30
2018-01-11T14:21:21.388Z,11.27
2018-01-11T14:23:48.924Z,12.03
2018-01-11T14:26:16.998Z,10.97
2018-01-11T14:28:44.515Z,12.23
2018-01-11T14:31:12.044Z,11.73
2018-01-11T14:33:39.592Z,11.90
2018-01-11T14:36:07.142Z,13.10
2018-01-11T14:38:34.800Z,13.37
2018-01-11T14:41:02.369Z,13.67
2018-01-11T14:43:30.909Z,13.93
2018-01-11T14:45:58.476Z,13.73
2018-01-11T14:48:26.138Z,14.33
2018-01-11T14:50:53.792Z,14.73
2018-01-11T14:53:21.816Z,15.67
2018-01-11T14:55:50.127Z,15.37
2018-01-11T14:58:17.734Z,15.73
2018-01-11T15:00:45.297Z,15.70
2018-01-11T15:03:13.272Z,15.80
2018-01-11T15:05:41.678Z,15.60
2018-01-11T15:08:10.379Z,16.50
2018-01-11T15:10:38.993Z,15.90
2018-01-11T15:13:06.545Z,17.10
2018-01-11T15:15:34.156Z,16.77
2018-01-11T15:18:01.704Z,17.53
2018-01-11T15:20:29.223Z,17.13
2018-01-11T15:22:56.769Z,17.43
2018-01-11T15:25:25.053Z,17.40
2018-01-11T15:27:52.623Z,17.40
2018-01-11T15:30:20.295Z,18.37
2018-01-11T15:32:47.877Z,18.47
2018-01-11T15:35:15.960Z,19.00
2018-01-11T15:37:44.354Z,19.60
2018-01-11T15:40:12.754Z,19.53
2018-01-11T15:42:40.755Z,17.90
2018-01-11T15:45:08.624Z,19.20
2018-01-11T15:47:36.235Z,18.70
2018-01-11T15:50:03.879Z,19.10
2018-01-11T15:52:31.439Z,18.27
2018-01-11T15:54:59.966Z,17.83
2018-01-11T15:57:28.004Z,18.57
2018-01-11T15:59:55.552Z,22.73
2018-01-11T16:02:23.078Z,21.50
2018-01-11T16:04:50.729Z,20.60
2018-01-11T16:07:18.285Z,20.67
2018-01-11T16:09:46.994Z,20.67
2018-01-11T16:12:14.675Z,21.33
2018-01-11T16:14:42.448Z,19.50
2018-01-11T16:17:10.404Z,20.53
2018-01-11T16:19:39.146Z,19.40
2018-01-11T16:22:06.829Z,19.90
2018-01-11T16:24:34.396Z,19.80
2018-01-11T16:27:01.978Z,20.03
2018-01-11T16:29:29.488Z,20.47
2018-01-11T16:31:57.774Z,21.97
2018-01-11T16:34:25.314Z,22.40
2018-01-11T16:36:53.872Z,24.27
2018-01-11T16:39:21.531Z,25.00
2018-01-11T16:41:49.111Z,40.67
2018-01-11T16:44:16.923Z,23.60
2018-01-11T16:46:44.768Z,26.43
2018-01-11T16:49:13.096Z,23.23
2018-01-11T16:51:42.063Z,23.67
2018-01-11T16:54:10.733Z,20.83
2018-01-11T16:56:38.602Z,19.40
2018-01-11T16:59:06.379Z,19.70
2018-01-11T17:01:34.047Z,20.77
2018-01-11T17:04:01.707Z,20.23
2018-01-11T17:06:29.657Z,20.33
2018-01-11T17:08:57.284Z,19.73
2018-01-11T17:11:24.870Z,21.03
2018-01-11T17:13:53.332Z,20.60
2018-01-11T17:16:20.944Z,23.33
2018-01-11T17:18:48.447Z,21.47
2018-01-11T17:21:16.236Z,23.10
2018-01-11T17:23:44.077Z,25.23
2018-01-11T17:26:13.537Z,23.70
2018-01-11T17:28:42.123Z,24.60
2018-01-11T17:31:10.145Z,24.80
2018-01-11T17:33:38.126Z,26.50
2018-01-11T17:36:06.476Z,26.40
2018-01-11T17:38:34.821Z,25.60
2018-01-11T17:41:02.357Z,25.63
2018-01-11T17:43:30.641Z,25.37
2018-01-11T17:45:58.402Z,24.20
2018-01-11T17:48:25.987Z,27.03
2018-01-11T17:50:53.539Z,25.47
2018-01-11T17:53:21.084Z,24.80
2018-01-11T17:55:49.021Z,25.00
2018-01-11T17:58:16.518Z,26.40
2018-01-11T18:00:45.557Z,25.33
2018-01-11T18:03:14.072Z,22.50
2018-01-11T18:05:43.100Z,22.97
2018-01-11T18:08:11.766Z,23.23
2018-01-11T18:10:39.597Z,25.40
2018-01-11T18:13:07.292Z,24.17
2018-01-11T18:15:35.420Z,25.37
2018-01-11T18:18:02.950Z,26.53
2018-01-11T18:20:30.512Z,25.20
2018-01-11T18:22:58.044Z,25.90
2018-01-11T18:25:26.341Z,25.70
2018-01-11T18:27:54.713Z,25.83
2018-01-11T18:30:22.387Z,29.67
2018-01-11T18:32:51.184Z,27.80
2018-01-11T18:35:18.714Z,32.60
2018-01-11T18:37:47.126Z,30.87
2018-01-11T18:40:15.027Z,33.03
2018-01-11T18:42:43.036Z,33.37
2018-01-11T18:45:11.830Z,32.90
2018-01-11T18:47:39.448Z,32.10
2018-01-11T18:50:06.981Z,32.57
2018-01-11T18:52:36.770Z,31.03
2018-01-11T18:55:04.314Z,34.37
2018-01-11T18:57:33.240Z,32.53
2018-01-11T19:00:00.874Z,33.67
2018-01-11T19:02:28.420Z,32.93
2018-01-11T19:04:56.852Z,33.40
2018-01-11T19:07:24.406Z,32.57
2018-01-11T19:09:51.937Z,31.17
2018-01-11T19:12:19.714Z,31.10
2018-01-11T19:14:47.385Z,31.00
2018-01-11T19:17:15.105Z,30.10
2018-01-11T19:19:44.162Z,28.63
2018-01-11T19:22:12.009Z,27.63
2018-01-11T19:24:41.721Z,28.40
2018-01-11T19:27:10.208Z,28.43
2018-01-11T19:29:38.886Z,27.70
2018-01-11T19:32:06.465Z,27.63
2018-01-11T19:34:34.017Z,28.47
2018-01-11T19:37:01.585Z,28.07
2018-01-11T19:39:29.161Z,35.10
2018-01-11T19:41:56.695Z,28.20
2018-01-11T19:44:24.233Z,27.90
2018-01-11T19:46:51.830Z,27.77
2018-01-11T19:49:19.452Z,28.20
2018-01-11T19:51:47.334Z,28.77
2018-01-11T19:54:14.873Z,29.57
2018-01-11T19:56:42.616Z,30.10
2018-01-11T19:59:10.361Z,29.30
2018-01-11T20:01:38.768Z,28.63
2018-01-11T20:04:07.182Z,29.87
2018-01-11T20:06:34.737Z,28.40
2018-01-11T20:09:02.306Z,27.77
2018-01-11T20:11:29.856Z,28.97
2018-01-11T20:13:57.418Z,27.60
2018-01-11T20:16:24.977Z,28.80
2018-01-11T20:18:52.953Z,28.63
2018-01-11T20:21:20.831Z,28.27
2018-01-11T20:23:49.174Z,27.63
2018-01-11T20:26:17.168Z,27.73
2018-01-11T20:28:45.343Z,27.83
2018-01-11T20:31:13.849Z,28.07
2018-01-11T20:33:41.410Z,27.40
2018-01-11T20:36:10.377Z,29.50
2018-01-11T20:38:40.294Z,29.37
2018-01-11T20:41:08.572Z,31.00
2018-01-11T20:43:37.144Z,29.87
2018-01-11T20:46:04.781Z,29.37
2018-01-11T20:48:32.273Z,29.90
2018-01-11T20:50:59.820Z,31.13
2018-01-11T20:53:27.341Z,32.07
2018-01-11T20:55:56.391Z,31.30
2018-01-11T20:58:24.004Z,28.33
2018-01-11T21:00:51.781Z,28.87
2018-01-11T21:03:20.911Z,28.50
2018-01-11T21:05:48.547Z,29.73
2018-01-11T21:08:16.911Z,26.97
2018-01-11T21:10:45.690Z,27.77
2018-01-11T21:13:14.444Z,28.47
2018-01-11T21:15:44.740Z,28.87
2018-01-11T21:18:14.192Z,29.50
2018-01-11T21:20:43.365Z,29.03
2018-01-11T21:23:13.575Z,30.97
2018-01-11T21:25:43.215Z,30.13
2018-01-11T21:28:11.809Z,32.50
2018-01-11T21:30:42.932Z,33.90
2018-01-11T21:33:12.645Z,32.23
2018-01-11T21:35:41.618Z,30.53
2018-01-11T21:38:13.500Z,33.97
2018-01-11T21:40:44.021Z,34.27
2018-01-11T21:43:14.966Z,31.27
2018-01-11T21:45:45.081Z,33.17
2018-01-11T21:48:14.272Z,33.87
2018-01-11T21:50:44.285Z,32.50
2018-01-11T21:53:14.352Z,32.17
2018-01-11T21:55:44.014Z,34.13
2018-01-11T21:58:13.657Z,34.73
2018-01-11T22:00:42.822Z,36.07
2018-01-11T22:03:11.528Z,35.10
2018-01-11T22:05:40.831Z,34.97
2018-01-11T22:08:08.705Z,36.33
2018-01-11T22:10:37.084Z,35.47
2018-01-11T22:13:04.666Z,36.97
2018-01-11T22:15:32.236Z,38.60
2018-01-11T22:18:00.613Z,38.27
2018-01-11T22:20:28.922Z,40.50
2018-01-11T22:22:56.622Z,39.87
2018-01-11T22:25:24.598Z,38.13
2018-01-11T22:27:52.146Z,37.27
2018-01-11T22:30:20.084Z,37.27
2018-01-11T22:32:48.368Z,37.80
2018-01-11T22:35:17.371Z,39.13
2018-01-11T22:37:45.651Z,36.00
2018-01-11T22:40:14.057Z,36.33
2018-01-11T22:42:43.675Z,35.13
2018-01-11T22:45:12.516Z,36.50
2018-01-11T22:47:41.724Z,36.40
2018-01-11T22:50:11.497Z,37.20
2018-01-11T22:52:40.622Z,37.60
2018-01-11T22:55:10.493Z,39.63
2018-01-11T22:57:38.714Z,39.40
2018-01-11T23:00:09.049Z,41.93
2018-01-11T23:02:37.277Z,42.50
2018-01-11T23:05:05.213Z,43.00
2018-01-11T23:07:32.744Z,41.93
2018-01-11T23:10:00.448Z,43.63
2018-01-11T23:12:27.983Z,42.30
2018-01-11T23:14:55.530Z,42.73
2018-01-11T23:17:23.058Z,42.90
2018-01-11T23:19:51.384Z,45.37
2018-01-11T23:22:19.459Z,41.67
2018-01-11T23:24:47.238Z,39.87
2018-01-11T23:27:15.281Z,42.07
2018-01-11T23:29:43.151Z,41.83
2018-01-11T23:32:12.473Z,42.43
2018-01-11T23:34:41.826Z,42.20
2018-01-11T23:37:10.930Z,42.67
2018-01-11T23:39:38.942Z,44.23
2018-01-11T23:42:07.296Z,41.83
2018-01-11T23:44:35.624Z,44.53
2018-01-11T23:47:03.150Z,42.30
2018-01-11T23:49:30.694Z,44.17
2018-01-11T23:51:58.216Z,41.73
2018-01-11T23:54:26.539Z,40.80
2018-01-11T23:56:54.072Z,41.93
2018-01-11T23:59:21.599Z,40.00
